sensor_id;sensor_type;location;lat;lon;timestamp;P1;durP1;ratioP1;P2;durP2;ratioP2
22015;SDS011;64992;51.698;-0.292;2022-11-15T00:00:43;9.68;;;2.22;;
22015;SDS011;64992;51.698;-0.292;2022-11-15T00:03:09;7.22;;;2.47;;
22015;SDS011;64992;51.698;-0.292;2022-11-15T00:05:35;18.65;;;2.10;;
22015;SDS011;64992;51.698;-0.292;2022-11-15T00:08:01;10.30;;;2.20;;
22015;SDS011;64992;51.698;-0.292;2022-11-15T00:10:27;10.70;;;2.45;;
22015;SDS011;64992;51.698;-0.292;2022-11-15T00:12:53;15.55;;;3.10;;
22015;SDS011;64992;51.698;-0.292;2022-11-15T00:15:19;6.35;;;2.40;;
22015;SDS011;64992;51.698;-0.292;2022-11-15T00:17:48;9.05;;;2.35;;
22015;SDS011;64992;51.698;-0.292;2022-11-15T00:20:14;12.57;;;2.67;;
22015;SDS011;64992;51.698;-0.292;2022-11-15T00:22:40;14.25;;;2.88;;
22015;SDS011;64992;51.698;-0.292;2022-11-15T00:25:06;15.05;;;3.45;;
22015;SDS011;64992;51.698;-0.292;2022-11-15T00:27:32;16.75;;;3.00;;
22015;SDS011;64992;51.698;-0.292;2022-11-15T00:29:58;14.30;;;3.42;;
22015;SDS011;64992;51.698;-0.292;2022-11-15T00:32:24;18.67;;;2.90;;
22015;SDS011;64992;51.698;-0.292;2022-11-15T00:34:50;9.90;;;2.65;;
22015;SDS011;64992;51.698;-0.292;2022-11-15T00:37:16;14.90;;;3.15;;
22015;SDS011;64992;51.698;-0.292;2022-11-15T00:39:42;8.68;;;2.55;;
22015;SDS011;64992;51.698;-0.292;2022-11-15T00:42:08;8.88;;;2.90;;
22015;SDS011;64992;51.698;-0.292;2022-11-15T00:44:34;11.43;;;2.90;;
22015;SDS011;64992;51.698;-0.292;2022-11-15T00:47:00;12.43;;;3.28;;
22015;SDS011;64992;51.698;-0.292;2022-11-15T00:49:26;10.88;;;2.78;;
22015;SDS011;64992;51.698;-0.292;2022-11-15T00:51:52;11.07;;;2.95;;
22015;SDS011;64992;51.698;-0.292;2022-11-15T00:54:18;15.98;;;3.65;;
22015;SDS011;64992;51.698;-0.292;2022-11-15T00:56:44;13.60;;;3.22;;
22015;SDS011;64992;51.698;-0.292;2022-11-15T00:59:10;12.10;;;2.88;;
22015;SDS011;64992;51.698;-0.292;2022-11-15T01:01:36;14.63;;;3.20;;
22015;SDS011;64992;51.698;-0.292;2022-11-15T01:04:02;11.38;;;3.55;;
22015;SDS011;64992;51.698;-0.292;2022-11-15T01:06:28;6.35;;;2.88;;
22015;SDS011;64992;51.698;-0.292;2022-11-15T01:08:54;15.40;;;2.97;;
22015;SDS011;64992;51.698;-0.292;2022-11-15T01:11:20;22.92;;;3.40;;
22015;SDS011;64992;51.698;-0.292;2022-11-15T01:13:46;17.85;;;3.20;;
22015;SDS011;64992;51.698;-0.292;2022-11-15T01:16:13;17.67;;;3.58;;
22015;SDS011;64992;51.698;-0.292;2022-11-15T01:18:39;12.52;;;2.80;;
22015;SDS011;64992;51.698;-0.292;2022-11-15T01:21:16;13.13;;;3.30;;
22015;SDS011;64992;51.698;-0.292;2022-11-15T01:23:43;17.13;;;3.45;;
22015;SDS011;64992;51.698;-0.292;2022-11-15T01:26:11;17.35;;;3.00;;
22015;SDS011;64992;51.698;-0.292;2022-11-15T01:28:37;23.95;;;3.58;;
22015;SDS011;64992;51.698;-0.292;2022-11-15T01:31:05;13.10;;;3.20;;
22015;SDS011;64992;51.698;-0.292;2022-11-15T01:33:34;9.15;;;2.65;;
22015;SDS011;64992;51.698;-0.292;2022-11-15T01:36:05;12.60;;;3.15;;
22015;SDS011;64992;51.698;-0.292;2022-11-15T01:38:31;15.10;;;3.50;;
22015;SDS011;64992;51.698;-0.292;2022-11-15T01:40:57;10.93;;;2.13;;
22015;SDS011;64992;51.698;-0.292;2022-11-15T01:43:25;10.10;;;2.22;;
22015;SDS011;64992;51.698;-0.292;2022-11-15T01:48:36;14.05;;;2.35;;
22015;SDS011;64992;51.698;-0.292;2022-11-15T01:51:04;10.65;;;2.85;;
22015;SDS011;64992;51.698;-0.292;2022-11-15T01:53:30;12.48;;;2.47;;
22015;SDS011;64992;51.698;-0.292;2022-11-15T01:55:57;13.15;;;2.38;;
22015;SDS011;64992;51.698;-0.292;2022-11-15T01:58:24;12.60;;;2.40;;
22015;SDS011;64992;51.698;-0.292;2022-11-15T02:00:50;13.48;;;2.80;;
22015;SDS011;64992;51.698;-0.292;2022-11-15T02:03:17;13.00;;;2.15;;
22015;SDS011;64992;51.698;-0.292;2022-11-15T02:05:43;14.38;;;2.05;;
22015;SDS011;64992;51.698;-0.292;2022-11-15T02:08:09;13.45;;;2.10;;
22015;SDS011;64992;51.698;-0.292;2022-11-15T02:10:44;14.82;;;2.63;;
22015;SDS011;64992;51.698;-0.292;2022-11-15T02:13:10;13.05;;;3.33;;
22015;SDS011;64992;51.698;-0.292;2022-11-15T02:15:38;14.55;;;2.00;;
22015;SDS011;64992;51.698;-0.292;2022-11-15T02:26:10;11.70;;;2.25;;
22015;SDS011;64992;51.698;-0.292;2022-11-15T02:28:53;11.38;;;2.22;;
22015;SDS011;64992;51.698;-0.292;2022-11-15T02:33:59;9.27;;;2.40;;
22015;SDS011;64992;51.698;-0.292;2022-11-15T02:38:54;11.25;;;2.25;;
22015;SDS011;64992;51.698;-0.292;2022-11-15T02:41:29;20.92;;;2.78;;
22015;SDS011;64992;51.698;-0.292;2022-11-15T02:44:03;16.98;;;2.70;;
22015;SDS011;64992;51.698;-0.292;2022-11-15T02:49:17;7.72;;;2.03;;
22015;SDS011;64992;51.698;-0.292;2022-11-15T02:51:44;12.18;;;2.53;;
22015;SDS011;64992;51.698;-0.292;2022-11-15T02:54:12;14.85;;;3.00;;
22015;SDS011;64992;51.698;-0.292;2022-11-15T02:56:38;16.40;;;2.40;;
22015;SDS011;64992;51.698;-0.292;2022-11-15T02:59:07;8.68;;;1.98;;
22015;SDS011;64992;51.698;-0.292;2022-11-15T03:06:52;9.05;;;2.50;;
22015;SDS011;64992;51.698;-0.292;2022-11-15T03:09:34;10.38;;;2.30;;
22015;SDS011;64992;51.698;-0.292;2022-11-15T03:12:10;10.82;;;2.20;;
22015;SDS011;64992;51.698;-0.292;2022-11-15T03:14:44;19.88;;;2.72;;
22015;SDS011;64992;51.698;-0.292;2022-11-15T03:19:46;8.90;;;2.35;;
22015;SDS011;64992;51.698;-0.292;2022-11-15T03:22:15;21.05;;;3.60;;
22015;SDS011;64992;51.698;-0.292;2022-11-15T03:24:42;10.27;;;2.30;;
22015;SDS011;64992;51.698;-0.292;2022-11-15T03:27:09;12.88;;;2.58;;
22015;SDS011;64992;51.698;-0.292;2022-11-15T03:29:39;15.85;;;2.78;;
22015;SDS011;64992;51.698;-0.292;2022-11-15T03:32:09;8.75;;;2.40;;
22015;SDS011;64992;51.698;-0.292;2022-11-15T03:34:39;12.10;;;2.88;;
22015;SDS011;64992;51.698;-0.292;2022-11-15T03:37:08;13.57;;;2.80;;
22015;SDS011;64992;51.698;-0.292;2022-11-15T03:39:35;15.68;;;2.63;;
22015;SDS011;64992;51.698;-0.292;2022-11-15T03:47:10;19.73;;;2.08;;
22015;SDS011;64992;51.698;-0.292;2022-11-15T03:49:38;12.25;;;2.13;;
22015;SDS011;64992;51.698;-0.292;2022-11-15T03:52:06;10.57;;;2.95;;
22015;SDS011;64992;51.698;-0.292;2022-11-15T03:54:33;17.95;;;3.03;;
22015;SDS011;64992;51.698;-0.292;2022-11-15T03:56:59;12.40;;;2.53;;
22015;SDS011;64992;51.698;-0.292;2022-11-15T03:59:25;14.98;;;2.33;;
22015;SDS011;64992;51.698;-0.292;2022-11-15T04:01:51;15.75;;;3.78;;
22015;SDS011;64992;51.698;-0.292;2022-11-15T04:04:17;18.23;;;2.90;;
22015;SDS011;64992;51.698;-0.292;2022-11-15T04:06:43;11.40;;;2.75;;
22015;SDS011;64992;51.698;-0.292;2022-11-15T04:09:09;14.55;;;2.90;;
22015;SDS011;64992;51.698;-0.292;2022-11-15T04:11:35;17.90;;;2.53;;
22015;SDS011;64992;51.698;-0.292;2022-11-15T04:14:01;20.13;;;2.63;;
22015;SDS011;64992;51.698;-0.292;2022-11-15T04:16:27;19.08;;;3.00;;
22015;SDS011;64992;51.698;-0.292;2022-11-15T04:18:53;19.75;;;2.83;;
22015;SDS011;64992;51.698;-0.292;2022-11-15T04:21:48;21.67;;;2.45;;
22015;SDS011;64992;51.698;-0.292;2022-11-15T04:24:33;13.13;;;1.90;;
22015;SDS011;64992;51.698;-0.292;2022-11-15T04:26:59;11.80;;;1.90;;
22015;SDS011;64992;51.698;-0.292;2022-11-15T04:29:25;20.55;;;3.38;;
22015;SDS011;64992;51.698;-0.292;2022-11-15T04:32:01;12.75;;;2.28;;
22015;SDS011;64992;51.698;-0.292;2022-11-15T04:34:27;19.38;;;2.97;;
22015;SDS011;64992;51.698;-0.292;2022-11-15T04:36:53;21.48;;;3.20;;
22015;SDS011;64992;51.698;-0.292;2022-11-15T04:39:38;19.83;;;3.25;;
22015;SDS011;64992;51.698;-0.292;2022-11-15T04:42:04;16.33;;;2.72;;
22015;SDS011;64992;51.698;-0.292;2022-11-15T04:44:30;15.18;;;2.97;;
22015;SDS011;64992;51.698;-0.292;2022-11-15T04:46:56;12.10;;;2.72;;
22015;SDS011;64992;51.698;-0.292;2022-11-15T04:49:22;12.75;;;2.95;;
22015;SDS011;64992;51.698;-0.292;2022-11-15T04:51:48;16.10;;;2.65;;
22015;SDS011;64992;51.698;-0.292;2022-11-15T04:54:14;13.93;;;2.70;;
22015;SDS011;64992;51.698;-0.292;2022-11-15T04:56:40;28.15;;;3.45;;
22015;SDS011;64992;51.698;-0.292;2022-11-15T04:59:06;13.02;;;2.13;;
22015;SDS011;64992;51.698;-0.292;2022-11-15T05:01:31;10.07;;;2.45;;
22015;SDS011;64992;51.698;-0.292;2022-11-15T05:03:57;17.83;;;2.70;;
22015;SDS011;64992;51.698;-0.292;2022-11-15T05:06:42;19.38;;;2.58;;
22015;SDS011;64992;51.698;-0.292;2022-11-15T05:09:08;18.63;;;2.63;;
22015;SDS011;64992;51.698;-0.292;2022-11-15T05:11:34;24.90;;;2.78;;
22015;SDS011;64992;51.698;-0.292;2022-11-15T05:14:00;19.25;;;2.75;;
22015;SDS011;64992;51.698;-0.292;2022-11-15T05:16:26;17.33;;;2.45;;
22015;SDS011;64992;51.698;-0.292;2022-11-15T05:18:53;18.52;;;3.00;;
22015;SDS011;64992;51.698;-0.292;2022-11-15T05:21:19;14.27;;;2.25;;
22015;SDS011;64992;51.698;-0.292;2022-11-15T05:23:45;26.25;;;3.33;;
22015;SDS011;64992;51.698;-0.292;2022-11-15T05:26:15;13.13;;;2.33;;
22015;SDS011;64992;51.698;-0.292;2022-11-15T05:28:41;14.15;;;2.38;;
22015;SDS011;64992;51.698;-0.292;2022-11-15T05:31:08;19.42;;;2.85;;
22015;SDS011;64992;51.698;-0.292;2022-11-15T05:33:35;15.05;;;2.30;;
22015;SDS011;64992;51.698;-0.292;2022-11-15T05:36:05;16.55;;;2.78;;
22015;SDS011;64992;51.698;-0.292;2022-11-15T05:38:32;15.32;;;2.95;;
22015;SDS011;64992;51.698;-0.292;2022-11-15T05:40:59;14.18;;;2.50;;
22015;SDS011;64992;51.698;-0.292;2022-11-15T05:43:25;13.18;;;2.42;;
22015;SDS011;64992;51.698;-0.292;2022-11-15T05:45:51;17.52;;;2.38;;
22015;SDS011;64992;51.698;-0.292;2022-11-15T05:48:18;14.27;;;2.80;;
22015;SDS011;64992;51.698;-0.292;2022-11-15T05:50:44;15.63;;;2.78;;
22015;SDS011;64992;51.698;-0.292;2022-11-15T05:53:12;20.73;;;2.70;;
22015;SDS011;64992;51.698;-0.292;2022-11-15T05:55:38;8.77;;;2.80;;
22015;SDS011;64992;51.698;-0.292;2022-11-15T05:58:05;14.90;;;2.47;;
22015;SDS011;64992;51.698;-0.292;2022-11-15T06:00:31;13.75;;;2.25;;
22015;SDS011;64992;51.698;-0.292;2022-11-15T06:02:57;17.95;;;2.78;;
22015;SDS011;64992;51.698;-0.292;2022-11-15T06:05:23;15.98;;;3.17;;
22015;SDS011;64992;51.698;-0.292;2022-11-15T06:07:49;13.38;;;2.70;;
22015;SDS011;64992;51.698;-0.292;2022-11-15T06:10:15;20.23;;;3.47;;
22015;SDS011;64992;51.698;-0.292;2022-11-15T06:12:41;13.23;;;2.53;;
22015;SDS011;64992;51.698;-0.292;2022-11-15T06:15:07;17.02;;;3.03;;
22015;SDS011;64992;51.698;-0.292;2022-11-15T06:17:33;21.27;;;3.45;;
22015;SDS011;64992;51.698;-0.292;2022-11-15T06:19:59;16.95;;;3.00;;
22015;SDS011;64992;51.698;-0.292;2022-11-15T06:22:25;21.40;;;3.28;;
22015;SDS011;64992;51.698;-0.292;2022-11-15T06:24:51;22.77;;;2.80;;
22015;SDS011;64992;51.698;-0.292;2022-11-15T06:27:17;23.13;;;3.10;;
22015;SDS011;64992;51.698;-0.292;2022-11-15T06:29:43;20.52;;;3.63;;
22015;SDS011;64992;51.698;-0.292;2022-11-15T06:32:09;15.40;;;3.10;;
22015;SDS011;64992;51.698;-0.292;2022-11-15T06:34:35;16.58;;;3.17;;
22015;SDS011;64992;51.698;-0.292;2022-11-15T06:37:02;20.52;;;3.50;;
22015;SDS011;64992;51.698;-0.292;2022-11-15T06:39:28;17.10;;;3.40;;
22015;SDS011;64992;51.698;-0.292;2022-11-15T06:41:54;19.00;;;4.13;;
22015;SDS011;64992;51.698;-0.292;2022-11-15T06:44:20;15.20;;;3.20;;
22015;SDS011;64992;51.698;-0.292;2022-11-15T06:46:46;11.52;;;2.92;;
22015;SDS011;64992;51.698;-0.292;2022-11-15T06:49:12;22.13;;;2.88;;
22015;SDS011;64992;51.698;-0.292;2022-11-15T06:51:38;17.98;;;3.25;;
22015;SDS011;64992;51.698;-0.292;2022-11-15T06:54:04;18.13;;;3.05;;
22015;SDS011;64992;51.698;-0.292;2022-11-15T06:56:30;11.95;;;2.50;;
22015;SDS011;64992;51.698;-0.292;2022-11-15T06:58:56;21.25;;;3.08;;
22015;SDS011;64992;51.698;-0.292;2022-11-15T07:01:22;12.45;;;2.28;;
22015;SDS011;64992;51.698;-0.292;2022-11-15T07:03:48;17.13;;;2.58;;
22015;SDS011;64992;51.698;-0.292;2022-11-15T07:06:14;14.55;;;2.58;;
22015;SDS011;64992;51.698;-0.292;2022-11-15T07:08:40;12.05;;;2.78;;
22015;SDS011;64992;51.698;-0.292;2022-11-15T07:11:07;15.90;;;3.17;;
22015;SDS011;64992;51.698;-0.292;2022-11-15T07:13:34;20.38;;;4.18;;
22015;SDS011;64992;51.698;-0.292;2022-11-15T07:16:01;23.83;;;3.17;;
22015;SDS011;64992;51.698;-0.292;2022-11-15T07:18:27;14.95;;;3.08;;
22015;SDS011;64992;51.698;-0.292;2022-11-15T07:20:54;20.77;;;3.13;;
22015;SDS011;64992;51.698;-0.292;2022-11-15T07:23:20;21.67;;;2.88;;
22015;SDS011;64992;51.698;-0.292;2022-11-15T07:25:46;17.08;;;2.83;;
22015;SDS011;64992;51.698;-0.292;2022-11-15T07:28:12;18.60;;;3.97;;
22015;SDS011;64992;51.698;-0.292;2022-11-15T07:30:38;21.73;;;3.42;;
22015;SDS011;64992;51.698;-0.292;2022-11-15T07:33:04;11.63;;;2.85;;
22015;SDS011;64992;51.698;-0.292;2022-11-15T07:35:30;20.42;;;3.78;;
22015;SDS011;64992;51.698;-0.292;2022-11-15T07:37:57;16.50;;;3.33;;
22015;SDS011;64992;51.698;-0.292;2022-11-15T07:40:23;28.83;;;3.40;;
22015;SDS011;64992;51.698;-0.292;2022-11-15T07:42:49;161.82;;;9.23;;
22015;SDS011;64992;51.698;-0.292;2022-11-15T07:45:19;33.67;;;3.55;;
22015;SDS011;64992;51.698;-0.292;2022-11-15T07:47:46;14.25;;;2.72;;
22015;SDS011;64992;51.698;-0.292;2022-11-15T07:50:12;36.25;;;3.75;;
22015;SDS011;64992;51.698;-0.292;2022-11-15T07:52:38;30.95;;;3.83;;
22015;SDS011;64992;51.698;-0.292;2022-11-15T07:55:04;21.50;;;3.60;;
22015;SDS011;64992;51.698;-0.292;2022-11-15T07:57:30;10.82;;;2.28;;
22015;SDS011;64992;51.698;-0.292;2022-11-15T07:59:56;36.60;;;3.67;;
22015;SDS011;64992;51.698;-0.292;2022-11-15T08:02:22;15.20;;;3.22;;
22015;SDS011;64992;51.698;-0.292;2022-11-15T08:04:48;18.15;;;3.30;;
22015;SDS011;64992;51.698;-0.292;2022-11-15T08:07:14;11.60;;;2.53;;
22015;SDS011;64992;51.698;-0.292;2022-11-15T08:09:40;9.45;;;3.05;;
22015;SDS011;64992;51.698;-0.292;2022-11-15T08:12:06;26.73;;;3.90;;
22015;SDS011;64992;51.698;-0.292;2022-11-15T08:14:32;9.63;;;2.50;;
22015;SDS011;64992;51.698;-0.292;2022-11-15T08:16:58;10.25;;;2.17;;
22015;SDS011;64992;51.698;-0.292;2022-11-15T08:19:24;7.28;;;2.55;;
22015;SDS011;64992;51.698;-0.292;2022-11-15T08:21:50;17.33;;;2.58;;
22015;SDS011;64992;51.698;-0.292;2022-11-15T08:24:16;9.85;;;2.38;;
22015;SDS011;64992;51.698;-0.292;2022-11-15T08:26:42;14.48;;;2.20;;
22015;SDS011;64992;51.698;-0.292;2022-11-15T08:29:08;37.67;;;2.72;;
22015;SDS011;64992;51.698;-0.292;2022-11-15T08:31:35;8.25;;;2.15;;
22015;SDS011;64992;51.698;-0.292;2022-11-15T08:34:01;4.85;;;2.22;;
22015;SDS011;64992;51.698;-0.292;2022-11-15T08:36:28;7.60;;;2.20;;
22015;SDS011;64992;51.698;-0.292;2022-11-15T08:38:54;6.50;;;2.28;;
22015;SDS011;64992;51.698;-0.292;2022-11-15T08:41:36;6.72;;;2.10;;
22015;SDS011;64992;51.698;-0.292;2022-11-15T08:44:03;6.50;;;1.92;;
22015;SDS011;64992;51.698;-0.292;2022-11-15T08:46:29;7.18;;;1.88;;
22015;SDS011;64992;51.698;-0.292;2022-11-15T08:48:56;4.65;;;2.00;;
22015;SDS011;64992;51.698;-0.292;2022-11-15T08:51:21;4.72;;;1.60;;
22015;SDS011;64992;51.698;-0.292;2022-11-15T08:53:48;4.88;;;1.88;;
22015;SDS011;64992;51.698;-0.292;2022-11-15T08:56:14;6.20;;;1.92;;
22015;SDS011;64992;51.698;-0.292;2022-11-15T08:58:41;7.20;;;1.95;;
22015;SDS011;64992;51.698;-0.292;2022-11-15T09:01:13;10.65;;;2.00;;
22015;SDS011;64992;51.698;-0.292;2022-11-15T09:03:40;6.57;;;1.83;;
22015;SDS011;64992;51.698;-0.292;2022-11-15T09:06:06;12.82;;;2.03;;
22015;SDS011;64992;51.698;-0.292;2022-11-15T09:08:32;6.45;;;2.00;;
22015;SDS011;64992;51.698;-0.292;2022-11-15T09:11:02;3.13;;;1.65;;
22015;SDS011;64992;51.698;-0.292;2022-11-15T09:13:28;3.35;;;1.88;;
22015;SDS011;64992;51.698;-0.292;2022-11-15T09:15:57;6.07;;;1.80;;
22015;SDS011;64992;51.698;-0.292;2022-11-15T09:18:23;2.88;;;1.60;;
22015;SDS011;64992;51.698;-0.292;2022-11-15T09:20:49;3.45;;;2.42;;
22015;SDS011;64992;51.698;-0.292;2022-11-15T09:23:15;7.38;;;1.88;;
22015;SDS011;64992;51.698;-0.292;2022-11-15T09:25:41;3.67;;;1.58;;
22015;SDS011;64992;51.698;-0.292;2022-11-15T09:28:07;6.50;;;1.63;;
22015;SDS011;64992;51.698;-0.292;2022-11-15T09:30:34;4.15;;;2.10;;
22015;SDS011;64992;51.698;-0.292;2022-11-15T09:33:06;6.25;;;2.10;;
22015;SDS011;64992;51.698;-0.292;2022-11-15T09:35:32;6.80;;;2.38;;
22015;SDS011;64992;51.698;-0.292;2022-11-15T09:37:58;6.05;;;2.45;;
22015;SDS011;64992;51.698;-0.292;2022-11-15T09:40:24;4.18;;;2.15;;
22015;SDS011;64992;51.698;-0.292;2022-11-15T09:48:27;6.00;;;1.85;;
22015;SDS011;64992;51.698;-0.292;2022-11-15T09:50:55;5.20;;;1.83;;
22015;SDS011;64992;51.698;-0.292;2022-11-15T09:55:58;4.35;;;1.85;;
22015;SDS011;64992;51.698;-0.292;2022-11-15T10:01:00;5.70;;;2.45;;
22015;SDS011;64992;51.698;-0.292;2022-11-15T10:03:33;4.35;;;2.25;;
22015;SDS011;64992;51.698;-0.292;2022-11-15T10:06:01;4.15;;;2.20;;
22015;SDS011;64992;51.698;-0.292;2022-11-15T10:11:08;2.33;;;2.13;;
22015;SDS011;64992;51.698;-0.292;2022-11-15T10:13:35;4.35;;;2.72;;
22015;SDS011;64992;51.698;-0.292;2022-11-15T10:19:00;4.82;;;2.47;;
22015;SDS011;64992;51.698;-0.292;2022-11-15T10:21:32;4.15;;;2.03;;
22015;SDS011;64992;51.698;-0.292;2022-11-15T10:24:10;2.63;;;1.63;;
22015;SDS011;64992;51.698;-0.292;2022-11-15T10:26:36;3.95;;;1.40;;
22015;SDS011;64992;51.698;-0.292;2022-11-15T10:29:02;2.35;;;1.38;;
22015;SDS011;64992;51.698;-0.292;2022-11-15T10:31:28;4.38;;;1.73;;
22015;SDS011;64992;51.698;-0.292;2022-11-15T10:36:56;1.77;;;1.20;;
22015;SDS011;64992;51.698;-0.292;2022-11-15T10:39:23;3.42;;;1.13;;
22015;SDS011;64992;51.698;-0.292;2022-11-15T10:41:49;3.88;;;1.90;;
22015;SDS011;64992;51.698;-0.292;2022-11-15T10:46:42;10.63;;;1.58;;
22015;SDS011;64992;51.698;-0.292;2022-11-15T10:51:47;3.88;;;1.80;;
22015;SDS011;64992;51.698;-0.292;2022-11-15T10:54:16;7.75;;;1.92;;
22015;SDS011;64992;51.698;-0.292;2022-11-15T10:56:47;5.32;;;2.00;;
22015;SDS011;64992;51.698;-0.292;2022-11-15T10:59:23;7.85;;;2.30;;
22015;SDS011;64992;51.698;-0.292;2022-11-15T11:01:50;7.38;;;2.45;;
22015;SDS011;64992;51.698;-0.292;2022-11-15T11:04:16;5.63;;;2.40;;
22015;SDS011;64992;51.698;-0.292;2022-11-15T11:06:53;8.45;;;2.10;;
22015;SDS011;64992;51.698;-0.292;2022-11-15T11:09:27;6.70;;;2.30;;
22015;SDS011;64992;51.698;-0.292;2022-11-15T11:11:54;6.28;;;1.88;;
22015;SDS011;64992;51.698;-0.292;2022-11-15T11:14:28;5.88;;;2.13;;
22015;SDS011;64992;51.698;-0.292;2022-11-15T11:17:40;4.32;;;1.70;;
22015;SDS011;64992;51.698;-0.292;2022-11-15T11:22:49;9.23;;;1.98;;
22015;SDS011;64992;51.698;-0.292;2022-11-15T11:25:23;9.07;;;1.80;;
22015;SDS011;64992;51.698;-0.292;2022-11-15T11:30:24;6.35;;;1.70;;
22015;SDS011;64992;51.698;-0.292;2022-11-15T11:35:48;7.07;;;1.83;;
22015;SDS011;64992;51.698;-0.292;2022-11-15T11:46:12;5.72;;;1.63;;
22015;SDS011;64992;51.698;-0.292;2022-11-15T11:51:15;6.93;;;1.45;;
22015;SDS011;64992;51.698;-0.292;2022-11-15T11:56:31;9.38;;;1.92;;
22015;SDS011;64992;51.698;-0.292;2022-11-15T11:59:16;10.23;;;2.38;;
22015;SDS011;64992;51.698;-0.292;2022-11-15T12:01:43;6.47;;;1.83;;
22015;SDS011;64992;51.698;-0.292;2022-11-15T12:04:20;6.28;;;1.60;;
22015;SDS011;64992;51.698;-0.292;2022-11-15T12:06:54;9.52;;;1.95;;
22015;SDS011;64992;51.698;-0.292;2022-11-15T12:14:49;3.28;;;1.60;;
22015;SDS011;64992;51.698;-0.292;2022-11-15T12:17:17;8.02;;;2.13;;
22015;SDS011;64992;51.698;-0.292;2022-11-15T12:19:45;10.13;;;1.80;;
22015;SDS011;64992;51.698;-0.292;2022-11-15T12:24:57;4.53;;;1.52;;
22015;SDS011;64992;51.698;-0.292;2022-11-15T12:27:38;11.30;;;1.98;;
22015;SDS011;64992;51.698;-0.292;2022-11-15T12:30:11;3.05;;;1.55;;
22015;SDS011;64992;51.698;-0.292;2022-11-15T12:32:38;6.47;;;1.95;;
22015;SDS011;64992;51.698;-0.292;2022-11-15T12:35:20;12.18;;;2.13;;
22015;SDS011;64992;51.698;-0.292;2022-11-15T12:45:40;5.15;;;1.90;;
22015;SDS011;64992;51.698;-0.292;2022-11-15T13:01:55;8.48;;;2.25;;
22015;SDS011;64992;51.698;-0.292;2022-11-15T13:06:40;10.55;;;2.55;;
22015;SDS011;64992;51.698;-0.292;2022-11-15T13:11:52;7.68;;;2.17;;
22015;SDS011;64992;51.698;-0.292;2022-11-15T13:19:43;11.85;;;3.00;;
22015;SDS011;64992;51.698;-0.292;2022-11-15T13:22:11;10.65;;;2.40;;
22015;SDS011;64992;51.698;-0.292;2022-11-15T13:24:56;17.67;;;2.78;;
22015;SDS011;64992;51.698;-0.292;2022-11-15T13:27:22;6.97;;;2.45;;
22015;SDS011;64992;51.698;-0.292;2022-11-15T13:29:48;8.80;;;2.33;;
22015;SDS011;64992;51.698;-0.292;2022-11-15T13:32:14;7.47;;;2.13;;
22015;SDS011;64992;51.698;-0.292;2022-11-15T13:34:44;9.27;;;2.22;;
22015;SDS011;64992;51.698;-0.292;2022-11-15T13:37:26;12.55;;;2.17;;
22015;SDS011;64992;51.698;-0.292;2022-11-15T13:39:53;9.45;;;2.08;;
22015;SDS011;64992;51.698;-0.292;2022-11-15T13:42:20;11.75;;;2.40;;
22015;SDS011;64992;51.698;-0.292;2022-11-15T13:44:56;11.50;;;2.67;;
22015;SDS011;64992;51.698;-0.292;2022-11-15T13:47:22;11.38;;;2.28;;
22015;SDS011;64992;51.698;-0.292;2022-11-15T13:49:51;7.22;;;1.92;;
22015;SDS011;64992;51.698;-0.292;2022-11-15T13:52:17;11.55;;;2.53;;
22015;SDS011;64992;51.698;-0.292;2022-11-15T13:54:45;10.30;;;2.00;;
22015;SDS011;64992;51.698;-0.292;2022-11-15T13:57:22;8.68;;;1.65;;
22015;SDS011;64992;51.698;-0.292;2022-11-15T14:02:18;6.13;;;2.03;;
22015;SDS011;64992;51.698;-0.292;2022-11-15T14:04:46;9.85;;;1.92;;
22015;SDS011;64992;51.698;-0.292;2022-11-15T14:07:20;5.38;;;1.50;;
22015;SDS011;64992;51.698;-0.292;2022-11-15T14:09:47;8.75;;;1.52;;
22015;SDS011;64992;51.698;-0.292;2022-11-15T14:14:52;8.73;;;2.28;;
22015;SDS011;64992;51.698;-0.292;2022-11-15T14:19:48;8.23;;;1.50;;
22015;SDS011;64992;51.698;-0.292;2022-11-15T14:22:16;6.57;;;1.60;;
22015;SDS011;64992;51.698;-0.292;2022-11-15T14:24:44;6.88;;;1.30;;
22015;SDS011;64992;51.698;-0.292;2022-11-15T14:27:24;4.78;;;1.05;;
22015;SDS011;64992;51.698;-0.292;2022-11-15T14:29:50;3.47;;;1.40;;
22015;SDS011;64992;51.698;-0.292;2022-11-15T14:34:46;6.95;;;1.52;;
22015;SDS011;64992;51.698;-0.292;2022-11-15T14:37:18;4.53;;;1.50;;
22015;SDS011;64992;51.698;-0.292;2022-11-15T14:39:44;9.10;;;1.50;;
22015;SDS011;64992;51.698;-0.292;2022-11-15T14:42:10;4.88;;;1.30;;
22015;SDS011;64992;51.698;-0.292;2022-11-15T14:44:36;8.15;;;1.23;;
22015;SDS011;64992;51.698;-0.292;2022-11-15T14:47:02;2.67;;;1.25;;
22015;SDS011;64992;51.698;-0.292;2022-11-15T14:49:28;6.75;;;1.98;;
22015;SDS011;64992;51.698;-0.292;2022-11-15T14:51:54;4.45;;;1.00;;
22015;SDS011;64992;51.698;-0.292;2022-11-15T14:54:20;4.55;;;1.35;;
22015;SDS011;64992;51.698;-0.292;2022-11-15T14:56:46;2.25;;;1.02;;
22015;SDS011;64992;51.698;-0.292;2022-11-15T14:59:12;9.77;;;1.20;;
22015;SDS011;64992;51.698;-0.292;2022-11-15T15:01:38;7.28;;;1.63;;
22015;SDS011;64992;51.698;-0.292;2022-11-15T15:04:04;8.00;;;1.38;;
22015;SDS011;64992;51.698;-0.292;2022-11-15T15:06:30;7.43;;;1.60;;
22015;SDS011;64992;51.698;-0.292;2022-11-15T15:08:56;3.22;;;1.30;;
22015;SDS011;64992;51.698;-0.292;2022-11-15T15:11:23;4.35;;;1.63;;
22015;SDS011;64992;51.698;-0.292;2022-11-15T15:13:50;7.47;;;1.42;;
22015;SDS011;64992;51.698;-0.292;2022-11-15T15:16:17;5.20;;;1.40;;
22015;SDS011;64992;51.698;-0.292;2022-11-15T15:18:43;10.20;;;1.55;;
22015;SDS011;64992;51.698;-0.292;2022-11-15T15:23:44;9.77;;;1.83;;
22015;SDS011;64992;51.698;-0.292;2022-11-15T15:26:10;7.38;;;1.50;;
22015;SDS011;64992;51.698;-0.292;2022-11-15T15:28:36;5.45;;;1.48;;
22015;SDS011;64992;51.698;-0.292;2022-11-15T15:31:04;7.93;;;1.67;;
22015;SDS011;64992;51.698;-0.292;2022-11-15T15:33:30;8.30;;;1.42;;
22015;SDS011;64992;51.698;-0.292;2022-11-15T15:35:56;6.55;;;1.67;;
22015;SDS011;64992;51.698;-0.292;2022-11-15T15:38:23;12.23;;;1.55;;
22015;SDS011;64992;51.698;-0.292;2022-11-15T15:40:49;7.65;;;1.55;;
22015;SDS011;64992;51.698;-0.292;2022-11-15T15:43:15;8.52;;;2.25;;
22015;SDS011;64992;51.698;-0.292;2022-11-15T15:45:41;7.32;;;1.40;;
22015;SDS011;64992;51.698;-0.292;2022-11-15T15:48:14;11.07;;;2.22;;
22015;SDS011;64992;51.698;-0.292;2022-11-15T15:50:41;7.35;;;2.00;;
22015;SDS011;64992;51.698;-0.292;2022-11-15T15:53:08;8.10;;;2.00;;
22015;SDS011;64992;51.698;-0.292;2022-11-15T15:55:35;6.97;;;1.83;;
22015;SDS011;64992;51.698;-0.292;2022-11-15T15:58:01;12.65;;;2.00;;
22015;SDS011;64992;51.698;-0.292;2022-11-15T16:00:27;9.32;;;1.85;;
22015;SDS011;64992;51.698;-0.292;2022-11-15T16:02:53;6.45;;;1.70;;
22015;SDS011;64992;51.698;-0.292;2022-11-15T16:05:19;7.40;;;1.85;;
22015;SDS011;64992;51.698;-0.292;2022-11-15T16:07:46;3.85;;;1.83;;
22015;SDS011;64992;51.698;-0.292;2022-11-15T16:12:45;11.70;;;1.98;;
22015;SDS011;64992;51.698;-0.292;2022-11-15T16:15:11;7.38;;;1.55;;
22015;SDS011;64992;51.698;-0.292;2022-11-15T16:17:38;8.85;;;1.67;;
22015;SDS011;64992;51.698;-0.292;2022-11-15T16:20:05;11.10;;;1.70;;
22015;SDS011;64992;51.698;-0.292;2022-11-15T16:22:31;10.10;;;2.33;;
22015;SDS011;64992;51.698;-0.292;2022-11-15T16:24:57;9.82;;;2.05;;
22015;SDS011;64992;51.698;-0.292;2022-11-15T16:27:23;7.40;;;1.80;;
22015;SDS011;64992;51.698;-0.292;2022-11-15T16:29:49;10.30;;;1.80;;
22015;SDS011;64992;51.698;-0.292;2022-11-15T16:32:15;7.68;;;2.08;;
22015;SDS011;64992;51.698;-0.292;2022-11-15T16:34:41;9.10;;;1.88;;
22015;SDS011;64992;51.698;-0.292;2022-11-15T16:37:20;9.20;;;2.15;;
22015;SDS011;64992;51.698;-0.292;2022-11-15T16:39:47;7.15;;;1.90;;
22015;SDS011;64992;51.698;-0.292;2022-11-15T16:42:13;8.25;;;2.20;;